Hatsu Envoy — VSQL9 — position and weather

sailwx.info

Track history (hours):
 
Tides and Currents Weather Stations Pressure Air Temp Water Temp Dewpoint Dewpoint Depression Visibility Wind Speed Wind Dir Waves Ship Positions

Hatsu Envoy

Last reported at 2018-Feb-24 21:59 UTC. Time now 2018-Feb-25 10:00 UTC.
Position N 22°20' E 114°07'.

Type: Cargo ship. MMSI: 235414000.

Date/timePositionNaut miles runAvg speedWind from/ knotsBaromVisibWave heightAir tempDewpointWater temp
2018-Feb-24 21:59N 22°20' E 114°07'1 1.1
2018-Feb-24 21:10N 22°20' E 114°08'0 0.0
2018-Feb-24 20:52N 22°20' E 114°08'0 0.0
2018-Feb-24 18:58N 22°20' E 114°08'0 0.0
2018-Feb-24 18:16N 22°20' E 114°08'0 0.0
2018-Feb-24 16:00N 22°20' E 114°08'1 1.4
2018-Feb-24 15:30N 22°20' E 114°07'  
2018-Feb-21 15:31N 23°17' E 117°33'112.8
2018-Feb-21 15:26N 23°18' E 117°34'512.7
2018-Feb-21 15:00N 23°21' E 117°39'612.7
2018-Feb-21 14:30N 23°25' E 117°45'712.9
2018-Feb-21 13:56N 23°29' E 117°51'613.3
2018-Feb-21 13:30N 23°33' E 117°56'813.5
2018-Feb-21 12:54N 23°37' E 118°04'614.0
2018-Feb-21 12:29N 23°41' E 118°09'914.4
2018-Feb-21 11:51N 23°48' E 118°14'1213.3
2018-Feb-21 10:56N 23°60' E 118°19'613.7
2018-Feb-21 10:30N 24°06' E 118°19'612.3
2018-Feb-21 10:00N 24°11' E 118°17'612.6
2018-Feb-21 09:30N 24°17' E 118°13'612.8
2018-Feb-21 09:00N 24°22' E 118°09'511.0
2018-Feb-21 08:30N 24°25' E 118°04'4 7.6
2018-Feb-21 08:01N 24°27' E 118°00'0 0.3
2018-Feb-21 07:30N 24°27' E 118°00'0 0.1
2018-Feb-21 07:00N 24°27' E 118°00'0 0.1
2018-Feb-21 06:30N 24°27' E 118°00'0 0.0
2018-Feb-21 06:00N 24°27' E 118°00'0 0.1
2018-Feb-21 05:30N 24°27' E 118°00'0 0.1
2018-Feb-21 05:00N 24°27' E 118°00'0 0.0
2018-Feb-21 04:30N 24°27' E 118°00'0 0.1
2018-Feb-21 04:00N 24°27' E 118°00'0 0.1
2018-Feb-21 03:30N 24°27' E 118°00'0 0.1
2018-Feb-21 03:00N 24°27' E 118°00'0 0.1
2018-Feb-21 02:29N 24°27' E 118°00'0 0.1
2018-Feb-21 02:00N 24°27' E 118°00'0 0.1
2018-Feb-21 01:30N 24°27' E 118°00'0 0.1
2018-Feb-21 01:00N 24°27' E 118°00'0 0.1
2018-Feb-21 00:30N 24°27' E 118°00'0 0.1
2018-Feb-21 00:01N 24°27' E 118°00'0 0.9
2018-Feb-20 23:31N 24°27' E 118°01'4 7.6
2018-Feb-20 23:01N 24°25' E 118°05'5 9.6
2018-Feb-20 22:31N 24°22' E 118°08'2 4.8
2018-Feb-20 22:01N 24°20' E 118°10'3 5.4
2018-Feb-20 21:31N 24°18' E 118°12'3 6.2
2018-Feb-20 21:01N 24°16' E 118°15'5 9.3
2018-Feb-20 20:30N 24°12' E 118°18'611.4
2018-Feb-20 20:00N 24°11' E 118°24'713.5
2018-Feb-20 19:30N 24°12' E 118°31'611.6
2018-Feb-20 19:00N 24°13' E 118°38'1 1.8
2018-Feb-20 18:31N 24°13' E 118°39'1 1.9
2018-Feb-20 18:00N 24°13' E 118°40'1 2.0
2018-Feb-20 17:30N 24°13' E 118°41'1 1.6
2018-Feb-20 17:00N 24°13' E 118°42'1 1.5
2018-Feb-20 16:30N 24°13' E 118°43'1 1.3
2018-Feb-20 16:01N 24°13' E 118°43'1 1.2
2018-Feb-20 15:31N 24°12' E 118°44'2 3.1
2018-Feb-20 14:55N 24°12' E 118°46'3511.4
2018-Feb-20 11:50N 24°25' E 119°22'511.9
2018-Feb-20 11:23N 24°28' E 119°27'9412.5
2018-Feb-20 03:51N 25°13' E 120°57'410.8
2018-Feb-20 03:30N 25°14' E 121°02'611.1
2018-Feb-20 03:00N 25°15' E 121°08'611.3
2018-Feb-20 02:30N 25°15' E 121°14'510.7
2018-Feb-20 02:00N 25°12' E 121°18'5 9.2
2018-Feb-20 01:30N 25°10' E 121°23'0 0.5
2018-Feb-20 01:00N 25°10' E 121°23'0 0.1
2018-Feb-20 00:30N 25°10' E 121°23'0 0.1
2018-Feb-20 00:00N 25°10' E 121°23'0 0.0
2018-Feb-19 23:30N 25°10' E 121°23'0 0.0
2018-Feb-19 23:00N 25°10' E 121°23'0 0.1
2018-Feb-19 22:29N 25°10' E 121°23'0 0.0
2018-Feb-19 22:00N 25°10' E 121°23'0 0.0
2018-Feb-19 21:30N 25°10' E 121°23'0 0.1
2018-Feb-19 21:00N 25°10' E 121°23'0 0.0
2018-Feb-19 20:30N 25°10' E 121°23'0 0.1
2018-Feb-19 19:59N 25°10' E 121°23'0 0.1
2018-Feb-19 19:30N 25°10' E 121°23'0 0.0
2018-Feb-19 19:00N 25°10' E 121°23'0 0.1
2018-Feb-19 18:29N 25°10' E 121°23'0 0.0
2018-Feb-19 17:59N 25°10' E 121°23'0 0.1
2018-Feb-19 17:29N 25°10' E 121°23'0 0.0
2018-Feb-19 17:00N 25°10' E 121°23'0 0.1
2018-Feb-19 16:30N 25°10' E 121°23'0 0.1
2018-Feb-19 16:00N 25°10' E 121°23'0 0.1
2018-Feb-19 15:30N 25°10' E 121°23'0 0.1
2018-Feb-19 14:58N 25°10' E 121°23'0 0.0
2018-Feb-19 14:29N 25°10' E 121°23'0 0.0
2018-Feb-19 14:00N 25°10' E 121°23'0 0.0
2018-Feb-19 13:30N 25°10' E 121°23'0 0.0
2018-Feb-19 13:00N 25°10' E 121°23'0 0.0
2018-Feb-19 12:30N 25°10' E 121°23'0 0.1
2018-Feb-19 12:00N 25°10' E 121°23'0 0.3
2018-Feb-19 11:29N 25°10' E 121°23'3 6.1
2018-Feb-19 11:00N 25°10' E 121°20'5 9.6
2018-Feb-19 10:27N 25°13' E 121°16'2 3.4
2018-Feb-19 10:00N 25°14' E 121°14'3 5.8
2018-Feb-19 09:30N 25°17' E 121°13'4 7.9
2018-Feb-19 08:59N 25°21' E 121°13'7 8.9
2018-Feb-19 08:09N 25°27' E 121°18'1 8.9
2018-Feb-19 08:01N 25°27' E 121°20'  
2018-Feb-17 02:18N 34°20' E 129°48'813.5
2018-Feb-17 01:44N 34°25' E 129°56'313.5
2018-Feb-17 01:30N 34°26' E 129°59'713.5
2018-Feb-17 00:59N 34°31' E 130°05'2014.7
2018-Feb-16 23:36N 34°45' E 130°23'1614.7
2018-Feb-16 22:32N 34°55' E 130°37'114.2
2018-Feb-16 22:28N 34°56' E 130°38'59313.7
2018-Feb-15 03:02N 41°20' E 140°13'010.4
2018-Feb-15 02:59N 41°20' E 140°14'610.6
2018-Feb-15 02:24N 41°23' E 140°21'511.1
2018-Feb-15 01:59N 41°26' E 140°26'510.7
2018-Feb-15 01:30N 41°29' E 140°31'612.2
2018-Feb-15 01:00N 41°33' E 140°38'611.3
2018-Feb-15 00:30N 41°36' E 140°44'510.9
2018-Feb-15 00:00N 41°39' E 140°50'510.8
2018-Feb-14 23:30N 41°39' E 140°58'611.4
2018-Feb-14 23:00N 41°39' E 141°05'713.4
2018-Feb-14 22:30N 41°39' E 141°14'612.9
2018-Feb-14 22:00N 41°39' E 141°23'  
Track history (hours):
 
Tides and Currents Weather Stations Pressure Air Temp Water Temp Dewpoint Dewpoint Depression Visibility Wind Speed Wind Dir Waves Ship Positions

Hatsu Envoy

Last reported at 2018-Feb-24 21:59 UTC. Time now 2018-Feb-25 10:00 UTC.
Position N 22°20' E 114°07'.

Type: Cargo ship. MMSI: 235414000.

Date/timePositionNaut miles runAvg speedWind from/ knotsBaromVisibWave heightAir tempDewpointWater temp
2018-Feb-24 21:59N 22°20' E 114°07'1 1.1
2018-Feb-24 21:10N 22°20' E 114°08'0 0.0
2018-Feb-24 20:52N 22°20' E 114°08'0 0.0
2018-Feb-24 18:58N 22°20' E 114°08'0 0.0
2018-Feb-24 18:16N 22°20' E 114°08'0 0.0
2018-Feb-24 16:00N 22°20' E 114°08'1 1.4
2018-Feb-24 15:30N 22°20' E 114°07'  
2018-Feb-21 15:31N 23°17' E 117°33'112.8
2018-Feb-21 15:26N 23°18' E 117°34'512.7
2018-Feb-21 15:00N 23°21' E 117°39'612.7
2018-Feb-21 14:30N 23°25' E 117°45'712.9
2018-Feb-21 13:56N 23°29' E 117°51'613.3
2018-Feb-21 13:30N 23°33' E 117°56'813.5
2018-Feb-21 12:54N 23°37' E 118°04'614.0
2018-Feb-21 12:29N 23°41' E 118°09'914.4
2018-Feb-21 11:51N 23°48' E 118°14'1213.3
2018-Feb-21 10:56N 23°60' E 118°19'613.7
2018-Feb-21 10:30N 24°06' E 118°19'612.3
2018-Feb-21 10:00N 24°11' E 118°17'612.6
2018-Feb-21 09:30N 24°17' E 118°13'612.8
2018-Feb-21 09:00N 24°22' E 118°09'511.0
2018-Feb-21 08:30N 24°25' E 118°04'4 7.6
2018-Feb-21 08:01N 24°27' E 118°00'0 0.3
2018-Feb-21 07:30N 24°27' E 118°00'0 0.1
2018-Feb-21 07:00N 24°27' E 118°00'0 0.1
2018-Feb-21 06:30N 24°27' E 118°00'0 0.0
2018-Feb-21 06:00N 24°27' E 118°00'0 0.1
2018-Feb-21 05:30N 24°27' E 118°00'0 0.1
2018-Feb-21 05:00N 24°27' E 118°00'0 0.0
2018-Feb-21 04:30N 24°27' E 118°00'0 0.1
2018-Feb-21 04:00N 24°27' E 118°00'0 0.1
2018-Feb-21 03:30N 24°27' E 118°00'0 0.1
2018-Feb-21 03:00N 24°27' E 118°00'0 0.1
2018-Feb-21 02:29N 24°27' E 118°00'0 0.1
2018-Feb-21 02:00N 24°27' E 118°00'0 0.1
2018-Feb-21 01:30N 24°27' E 118°00'0 0.1
2018-Feb-21 01:00N 24°27' E 118°00'0 0.1
2018-Feb-21 00:30N 24°27' E 118°00'0 0.1
2018-Feb-21 00:01N 24°27' E 118°00'0 0.9
2018-Feb-20 23:31N 24°27' E 118°01'4 7.6
2018-Feb-20 23:01N 24°25' E 118°05'5 9.6
2018-Feb-20 22:31N 24°22' E 118°08'2 4.8
2018-Feb-20 22:01N 24°20' E 118°10'3 5.4
2018-Feb-20 21:31N 24°18' E 118°12'3 6.2
2018-Feb-20 21:01N 24°16' E 118°15'5 9.3
2018-Feb-20 20:30N 24°12' E 118°18'611.4
2018-Feb-20 20:00N 24°11' E 118°24'713.5
2018-Feb-20 19:30N 24°12' E 118°31'611.6
2018-Feb-20 19:00N 24°13' E 118°38'1 1.8
2018-Feb-20 18:31N 24°13' E 118°39'1 1.9
2018-Feb-20 18:00N 24°13' E 118°40'1 2.0
2018-Feb-20 17:30N 24°13' E 118°41'1 1.6
2018-Feb-20 17:00N 24°13' E 118°42'1 1.5
2018-Feb-20 16:30N 24°13' E 118°43'1 1.3
2018-Feb-20 16:01N 24°13' E 118°43'1 1.2
2018-Feb-20 15:31N 24°12' E 118°44'2 3.1
2018-Feb-20 14:55N 24°12' E 118°46'3511.4
2018-Feb-20 11:50N 24°25' E 119°22'511.9
2018-Feb-20 11:23N 24°28' E 119°27'9412.5
2018-Feb-20 03:51N 25°13' E 120°57'410.8
2018-Feb-20 03:30N 25°14' E 121°02'611.1
2018-Feb-20 03:00N 25°15' E 121°08'611.3
2018-Feb-20 02:30N 25°15' E 121°14'510.7
2018-Feb-20 02:00N 25°12' E 121°18'5 9.2
2018-Feb-20 01:30N 25°10' E 121°23'0 0.5
2018-Feb-20 01:00N 25°10' E 121°23'0 0.1
2018-Feb-20 00:30N 25°10' E 121°23'0 0.1
2018-Feb-20 00:00N 25°10' E 121°23'0 0.0
2018-Feb-19 23:30N 25°10' E 121°23'0 0.0
2018-Feb-19 23:00N 25°10' E 121°23'0 0.1
2018-Feb-19 22:29N 25°10' E 121°23'0 0.0
2018-Feb-19 22:00N 25°10' E 121°23'0 0.0
2018-Feb-19 21:30N 25°10' E 121°23'0 0.1
2018-Feb-19 21:00N 25°10' E 121°23'0 0.0
2018-Feb-19 20:30N 25°10' E 121°23'0 0.1
2018-Feb-19 19:59N 25°10' E 121°23'0 0.1
2018-Feb-19 19:30N 25°10' E 121°23'0 0.0
2018-Feb-19 19:00N 25°10' E 121°23'0 0.1
2018-Feb-19 18:29N 25°10' E 121°23'0 0.0
2018-Feb-19 17:59N 25°10' E 121°23'0 0.1
2018-Feb-19 17:29N 25°10' E 121°23'0 0.0
2018-Feb-19 17:00N 25°10' E 121°23'0 0.1
2018-Feb-19 16:30N 25°10' E 121°23'0 0.1
2018-Feb-19 16:00N 25°10' E 121°23'0 0.1
2018-Feb-19 15:30N 25°10' E 121°23'0 0.1
2018-Feb-19 14:58N 25°10' E 121°23'0 0.0
2018-Feb-19 14:29N 25°10' E 121°23'0 0.0
2018-Feb-19 14:00N 25°10' E 121°23'0 0.0
2018-Feb-19 13:30N 25°10' E 121°23'0 0.0
2018-Feb-19 13:00N 25°10' E 121°23'0 0.0
2018-Feb-19 12:30N 25°10' E 121°23'0 0.1
2018-Feb-19 12:00N 25°10' E 121°23'0 0.3
2018-Feb-19 11:29N 25°10' E 121°23'3 6.1
2018-Feb-19 11:00N 25°10' E 121°20'5 9.6
2018-Feb-19 10:27N 25°13' E 121°16'2 3.4
2018-Feb-19 10:00N 25°14' E 121°14'3 5.8
2018-Feb-19 09:30N 25°17' E 121°13'4 7.9
2018-Feb-19 08:59N 25°21' E 121°13'7 8.9
2018-Feb-19 08:09N 25°27' E 121°18'1 8.9
2018-Feb-19 08:01N 25°27' E 121°20'  
2018-Feb-17 02:18N 34°20' E 129°48'813.5
2018-Feb-17 01:44N 34°25' E 129°56'313.5
2018-Feb-17 01:30N 34°26' E 129°59'713.5
2018-Feb-17 00:59N 34°31' E 130°05'2014.7
2018-Feb-16 23:36N 34°45' E 130°23'1614.7
2018-Feb-16 22:32N 34°55' E 130°37'114.2
2018-Feb-16 22:28N 34°56' E 130°38'59313.7
2018-Feb-15 03:02N 41°20' E 140°13'010.4
2018-Feb-15 02:59N 41°20' E 140°14'610.6
2018-Feb-15 02:24N 41°23' E 140°21'511.1
2018-Feb-15 01:59N 41°26' E 140°26'510.7
2018-Feb-15 01:30N 41°29' E 140°31'612.2
2018-Feb-15 01:00N 41°33' E 140°38'611.3
2018-Feb-15 00:30N 41°36' E 140°44'510.9
2018-Feb-15 00:00N 41°39' E 140°50'510.8
2018-Feb-14 23:30N 41°39' E 140°58'611.4
2018-Feb-14 23:00N 41°39' E 141°05'713.4
2018-Feb-14 22:30N 41°39' E 141°14'612.9
2018-Feb-14 22:00N 41°39' E 141°23'  

Dump ship's entire track history